Jerez de la Frontera, Spain
Current Conditions -  °F | °C
As of 10:00 AM on Friday 31 Oct 2014 (Local Time) from LEJR Reporting Station
Clear Clear  
Wind Chill: 72°   Ceiling: Unl
Heat Index: 72°   Visibility: 6mi
Dew Point: 50°   Wind: 3mph
Humidity: 46%   Direction: 310°NW
Pressure: 30.12"   Gusts: NA
Location:  36.69°N, 6.14°W
Report Text: LEJR 310900Z 31003KT CAVOK 22/10 Q1020
Loading
Personal Weather Stations






























Interactive Weather Map
Tropical Storm Tracking
New forecast layout! Learn more

10-Day Weather Forecast

Advertisements
Track Severe Weather on mobile